Time;durP1;ratioP1;P1;durP2;ratioP2;P2;SDS_P1;SDS_P2;PMS_P1;PMS_P2;Temp;Humidity;BMP_temperature;BMP_pressure;BME280_temperature;BME280_humidity;BME280_pressure;Samples;Min_cycle;Max_cycle;Signal;HPM_P1;HPM_P2
2022/08/07 00:00:24;;;;;;;11.02;10.18;;;9.70;99.90;;;;;;5021397;28;20051;-79
2022/08/07 00:02:51;;;;;;;11.30;10.52;;;9.70;99.90;;;;;;5027043;28;20045;-78
2022/08/07 00:05:20;;;;;;;11.65;10.90;;;9.60;99.90;;;;;;5009334;28;20072;-78
2022/08/07 00:07:50;;;;;;;11.13;10.32;;;9.70;99.90;;;;;;5023711;28;20041;-79
2022/08/07 00:10:27;;;;;;;10.18;9.68;;;9.70;99.90;;;;;;5007241;28;20445;-78
2022/08/07 00:13:00;;;;;;;11.25;10.43;;;9.60;99.90;;;;;;5011473;28;20417;-79
2022/08/07 00:15:49;;;;;;;10.80;10.20;;;9.60;99.90;;;;;;5028637;28;20060;-79
2022/08/07 00:18:19;;;;;;;11.40;10.57;;;9.70;99.90;;;;;;5025497;28;20040;-79
2022/08/07 00:20:56;;;;;;;10.18;9.27;;;9.60;99.90;;;;;;5023892;28;20132;-78
2022/08/07 00:23:29;;;;;;;9.48;8.88;;;9.70;99.90;;;;;;5029212;28;20068;-78
2022/08/07 00:25:56;;;;;;;9.50;9.00;;;9.70;99.90;;;;;;5007149;28;20045;-78
2022/08/07 00:28:29;;;;;;;9.93;9.02;;;9.70;99.90;;;;;;5041783;28;20064;-79
2022/08/07 00:31:06;;;;;;;9.23;8.52;;;9.60;99.90;;;;;;5010683;28;20037;-79
2022/08/07 00:33:42;;;;;;;8.80;8.27;;;9.50;99.90;;;;;;5015919;28;20548;-79
2022/08/07 00:36:13;;;;;;;9.65;9.05;;;9.40;99.90;;;;;;5026252;28;20788;-77
2022/08/07 00:38:42;;;;;;;9.90;9.20;;;9.40;99.90;;;;;;5031319;28;20048;-78
2022/08/07 00:41:10;;;;;;;9.82;9.27;;;9.50;99.90;;;;;;5026534;28;20502;-78
2022/08/07 00:43:42;;;;;;;9.65;9.05;;;9.50;99.90;;;;;;5011317;28;20049;-78
2022/08/07 00:46:29;;;;;;;10.20;9.50;;;9.40;99.90;;;;;;5027943;28;20219;-78
2022/08/07 00:49:01;;;;;;;10.60;9.90;;;9.50;99.90;;;;;;5026318;28;20052;-77
2022/08/07 00:51:29;;;;;;;10.13;9.55;;;9.50;99.90;;;;;;5009229;28;20044;-78
2022/08/07 00:54:17;;;;;;;10.45;9.65;;;9.40;99.90;;;;;;5012347;28;20100;-78
2022/08/07 00:56:50;;;;;;;10.25;9.65;;;9.30;99.90;;;;;;5007691;28;20537;-78
2022/08/07 00:59:17;;;;;;;10.48;9.77;;;9.20;99.90;;;;;;5027618;28;20040;-78
2022/08/07 01:01:58;;;;;;;11.05;10.20;;;9.20;99.90;;;;;;5010874;28;20061;-77
2022/08/07 01:04:26;;;;;;;10.80;9.93;;;9.10;99.90;;;;;;5005895;28;20232;-78
2022/08/07 01:06:56;;;;;;;10.52;9.93;;;9.10;99.90;;;;;;5026245;28;20056;-78
2022/08/07 01:09:24;;;;;;;11.48;10.68;;;9.20;99.90;;;;;;5010289;28;20045;-77
2022/08/07 01:12:11;;;;;;;10.93;10.05;;;9.20;99.90;;;;;;5029908;28;20106;-79
2022/08/07 01:14:58;;;;;;;10.23;9.63;;;9.30;99.90;;;;;;5030514;28;20049;-78
2022/08/07 01:17:30;;;;;;;9.88;9.02;;;9.20;99.90;;;;;;5010712;28;20091;-79
2022/08/07 01:20:12;;;;;;;9.52;8.82;;;9.20;99.90;;;;;;5009688;28;20053;-79
2022/08/07 01:22:44;;;;;;;10.35;9.55;;;9.10;99.90;;;;;;5005682;28;20053;-77
2022/08/07 01:25:33;;;;;;;9.45;8.95;;;9.00;99.90;;;;;;5024783;28;20049;-78
2022/08/07 01:28:20;;;;;;;10.73;9.95;;;8.90;99.90;;;;;;5008710;28;20048;-78
2022/08/07 01:30:51;;;;;;;11.43;10.63;;;9.10;99.90;;;;;;5005791;28;20152;-78
2022/08/07 01:33:21;;;;;;;11.25;10.65;;;9.10;99.90;;;;;;5022807;28;20094;-78
2022/08/07 01:35:49;;;;;;;12.27;11.38;;;9.00;99.90;;;;;;5028302;28;20112;-78
2022/08/07 01:38:23;;;;;;;11.75;10.75;;;9.00;99.90;;;;;;5027034;28;20041;-79
2022/08/07 01:40:59;;;;;;;11.80;11.00;;;9.00;99.90;;;;;;5027910;28;20148;-78
2022/08/07 01:43:28;;;;;;;12.25;11.52;;;8.90;99.90;;;;;;5035351;28;20045;-78
2022/08/07 01:46:05;;;;;;;11.93;11.07;;;8.90;99.90;;;;;;5025564;28;20464;-78
2022/08/07 01:48:41;;;;;;;12.02;11.30;;;8.90;99.90;;;;;;5021339;28;20414;-78
2022/08/07 01:51:22;;;;;;;12.02;11.30;;;8.90;99.90;;;;;;5004920;28;20115;-78
2022/08/07 01:54:12;;;;;;;11.95;11.20;;;8.90;99.90;;;;;;5011175;28;20057;-78
2022/08/07 01:57:15;;;;;;;11.63;11.02;;;8.80;99.90;;;;;;5006694;28;20037;-78
2022/08/07 02:00:03;;;;;;;11.63;10.70;;;8.80;99.90;;;;;;5011370;28;20084;-78
2022/08/07 02:02:49;;;;;;;11.23;10.35;;;8.70;99.90;;;;;;5005892;28;20053;-78
2022/08/07 02:05:43;;;;;;;;;;;8.70;99.90;;;;;;5022837;28;20483;-79
2022/08/07 02:08:31;;;;;;;10.60;10.00;;;8.90;99.90;;;;;;5017734;28;19989;-77
2022/08/07 02:11:00;;;;;;;11.48;10.57;;;8.90;99.90;;;;;;5002507;28;20359;-78
2022/08/07 02:13:32;;;;;;;12.05;11.13;;;8.70;99.90;;;;;;5018036;28;20046;-77
2022/08/07 02:16:25;;;;;;;11.70;10.77;;;8.70;99.90;;;;;;5003597;28;20301;-76
2022/08/07 02:19:02;;;;;;;10.63;9.93;;;8.80;99.90;;;;;;5018168;28;20049;-77
2022/08/07 02:21:53;;;;;;;11.93;10.80;;;8.90;99.90;;;;;;5032900;28;20053;-77
2022/08/07 02:24:24;;;;;;;10.63;9.93;;;8.90;99.90;;;;;;5017420;28;20053;-76
2022/08/07 02:26:51;;;;;;;11.40;10.50;;;9.00;99.90;;;;;;5016785;28;20100;-78
2022/08/07 02:29:20;;;;;;;11.35;10.55;;;8.90;99.90;;;;;;5013543;28;20041;-77
2022/08/07 02:31:50;;;;;;;12.25;11.45;;;8.90;99.90;;;;;;5020140;28;20095;-78
2022/08/07 02:34:20;;;;;;;11.55;10.75;;;8.80;99.90;;;;;;5018437;28;20521;-77
2022/08/07 02:36:52;;;;;;;12.68;10.90;;;8.80;99.90;;;;;;5025858;28;20159;-78
2022/08/07 02:39:20;;;;;;;11.43;10.68;;;8.80;99.90;;;;;;5012321;28;20048;-78
2022/08/07 02:42:11;;;;;;;11.68;10.80;;;8.80;99.90;;;;;;5026311;28;20104;-78
2022/08/07 02:44:48;;;;;;;13.40;12.13;;;8.70;99.90;;;;;;5013442;28;20053;-77
2022/08/07 02:47:20;;;;;;;11.50;10.50;;;8.80;99.90;;;;;;5026588;28;20037;-79
2022/08/07 02:49:53;;;;;;;11.15;10.30;;;8.70;99.90;;;;;;5025617;28;20132;-77
2022/08/07 02:52:33;;;;;;;12.93;11.65;;;8.70;99.90;;;;;;5028110;28;20072;-78
2022/08/07 02:55:06;;;;;;;12.25;11.35;;;8.70;99.90;;;;;;5013460;28;20053;-77
2022/08/07 02:58:01;;;;;;;11.35;10.45;;;8.70;99.90;;;;;;5026685;28;20056;-78
2022/08/07 03:00:33;;;;;;;11.68;10.88;;;8.70;99.90;;;;;;5006555;28;20049;-77
2022/08/07 03:03:05;;;;;;;11.85;10.85;;;8.80;99.90;;;;;;5018763;28;20090;-77
2022/08/07 03:05:36;;;;;;;12.00;11.20;;;8.80;99.90;;;;;;5011214;28;20034;-77
2022/08/07 03:08:06;;;;;;;12.23;11.23;;;8.80;99.90;;;;;;5030406;28;20052;-77
2022/08/07 03:10:40;;;;;;;13.93;12.60;;;8.90;99.90;;;;;;5014832;28;20142;-77
2022/08/07 03:13:16;;;;;;;12.88;12.00;;;8.80;99.90;;;;;;5025058;28;20505;-78
2022/08/07 03:15:48;;;;;;;12.52;11.43;;;8.80;99.90;;;;;;5008084;28;20091;-79
2022/08/07 03:18:28;;;;;;;13.43;12.15;;;8.80;99.90;;;;;;5025137;28;20142;-79
2022/08/07 03:21:05;;;;;;;12.82;11.73;;;8.70;99.90;;;;;;5014716;28;20047;-78
2022/08/07 03:23:40;;;;;;;11.70;10.90;;;8.60;99.90;;;;;;5013499;28;20335;-78
2022/08/07 03:26:32;;;;;;;12.18;11.27;;;8.60;99.90;;;;;;5029251;28;20049;-78
2022/08/07 03:29:06;;;;;;;13.05;12.15;;;8.50;99.90;;;;;;5014376;28;20420;-78
2022/08/07 03:31:42;;;;;;;12.77;11.88;;;8.60;99.90;;;;;;5007878;28;20072;-78
2022/08/07 03:34:16;;;;;;;14.07;12.88;;;8.60;99.90;;;;;;5011490;28;21065;-77
2022/08/07 03:36:52;;;;;;;15.15;13.68;;;8.70;99.90;;;;;;5023849;28;20053;-77
2022/08/07 03:39:22;;;;;;;15.70;14.32;;;8.70;99.90;;;;;;5005077;28;20045;-77
2022/08/07 03:42:13;;;;;;;14.55;13.35;;;8.60;99.90;;;;;;5044592;28;20049;-77
2022/08/07 03:44:40;;;;;;;15.98;13.30;;;8.60;99.90;;;;;;5024763;28;20099;-78
2022/08/07 03:47:08;;;;;;;14.40;13.13;;;8.60;99.90;;;;;;5027285;28;20572;-78
2022/08/07 03:49:45;;;;;;;15.43;13.85;;;8.50;99.90;;;;;;5026445;28;20057;-77
2022/08/07 03:52:22;;;;;;;14.25;13.18;;;8.60;99.90;;;;;;5030169;28;20041;-77
2022/08/07 03:54:59;;;;;;;;;;;8.40;99.90;;;;;;5035381;28;20131;-77
2022/08/07 03:57:37;;;;;;;14.30;13.18;;;8.30;99.90;;;;;;5027987;28;19921;-77
2022/08/07 04:00:30;;;;;;;14.85;13.75;;;8.40;99.90;;;;;;5029735;28;20036;-77
2022/08/07 04:03:03;;;;;;;15.55;14.27;;;8.30;99.90;;;;;;5024754;28;20041;-77
2022/08/07 04:05:35;;;;;;;15.70;14.40;;;8.40;99.90;;;;;;5008916;28;20126;-78
2022/08/07 04:08:16;;;;;;;15.82;14.32;;;8.50;99.90;;;;;;5027950;28;20091;-78
2022/08/07 04:10:48;;;;;;;13.43;12.35;;;8.50;99.90;;;;;;5029695;28;20045;-77
2022/08/07 04:13:25;;;;;;;13.00;11.90;;;8.50;99.90;;;;;;5012843;28;20051;-77
2022/08/07 04:15:54;;;;;;;14.60;13.23;;;8.50;99.90;;;;;;5011467;28;20447;-78
2022/08/07 04:18:24;;;;;;;14.02;12.57;;;8.40;99.90;;;;;;5025298;28;20395;-77
2022/08/07 04:21:11;;;;;;;18.45;13.50;;;8.50;99.90;;;;;;5018163;28;20529;-77
2022/08/07 04:23:42;;;;;;;14.05;12.75;;;8.60;99.90;;;;;;5010496;28;20072;-78
2022/08/07 04:26:29;;;;;;;14.00;12.80;;;8.50;99.90;;;;;;5027617;28;20051;-77
2022/08/07 04:28:58;;;;;;;14.07;12.88;;;8.50;99.90;;;;;;5007678;28;20044;-78
2022/08/07 04:31:25;;;;;;;13.80;12.63;;;8.40;99.90;;;;;;5030294;28;20413;-78
2022/08/07 04:34:13;;;;;;;14.43;13.15;;;8.40;99.90;;;;;;5032060;28;20131;-78
2022/08/07 04:36:44;;;;;;;13.50;12.40;;;8.40;99.90;;;;;;5007751;28;20120;-77
2022/08/07 04:39:15;;;;;;;12.95;11.90;;;8.40;99.90;;;;;;5011682;28;20116;-78
2022/08/07 04:41:44;;;;;;;13.57;12.57;;;8.40;99.90;;;;;;5007198;28;20256;-78
2022/08/07 04:44:17;;;;;;;13.88;12.88;;;8.40;99.90;;;;;;5010911;28;20045;-79
2022/08/07 04:47:09;;;;;;;12.70;11.63;;;8.20;99.90;;;;;;5015949;28;20049;-79
2022/08/07 04:50:12;;;;;;;14.43;13.40;;;8.30;99.90;;;;;;5017585;28;20060;-77
2022/08/07 04:53:01;;;;;;;13.85;12.93;;;8.40;99.90;;;;;;5032769;28;20104;-80
2022/08/07 04:55:45;;;;;;;14.57;13.45;;;8.30;99.90;;;;;;5015291;28;20037;-78
2022/08/07 04:58:46;;;;;;;15.75;14.45;;;8.40;99.90;;;;;;5032003;28;20595;-79
2022/08/07 05:01:54;;;;;;;15.15;14.05;;;8.40;99.90;;;;;;5010913;28;20326;-80
2022/08/07 05:04:41;;;;;;;14.45;13.15;;;8.40;99.90;;;;;;4996371;28;20048;-78
2022/08/07 05:07:22;;;;;;;15.60;14.23;;;8.70;99.90;;;;;;5025032;28;20029;-78
2022/08/07 05:10:15;;;;;;;17.27;15.45;;;8.80;99.90;;;;;;5018072;28;20494;-79
2022/08/07 05:12:58;;;;;;;15.48;14.15;;;9.00;99.90;;;;;;5026139;28;20408;-77
2022/08/07 05:15:50;;;;;;;15.38;13.85;;;9.10;99.90;;;;;;5011775;28;20132;-78
2022/08/07 05:18:29;;;;;;;15.57;14.25;;;9.20;99.90;;;;;;5009646;28;20041;-78
2022/08/07 05:21:02;;;;;;;15.15;13.75;;;9.40;99.90;;;;;;5011121;28;20116;-77
2022/08/07 05:23:36;;;;;;;15.00;13.70;;;9.50;99.90;;;;;;5028750;28;20399;-77
2022/08/07 05:26:06;;;;;;;16.45;14.05;;;9.70;99.90;;;;;;5010999;28;20538;-78
2022/08/07 05:28:45;;;;;;;13.98;12.73;;;9.80;99.90;;;;;;5016422;28;20279;-78
2022/08/07 05:31:19;;;;;;;14.32;13.23;;;9.90;99.90;;;;;;5024479;28;20500;-79
2022/08/07 05:33:51;;;;;;;14.32;13.05;;;10.00;99.90;;;;;;5011016;28;20087;-78
2022/08/07 05:36:37;;;;;;;13.68;12.48;;;10.20;99.90;;;;;;5026313;28;20047;-78
2022/08/07 05:39:16;;;;;;;14.60;13.15;;;10.20;99.90;;;;;;5030957;28;20609;-79
2022/08/07 05:42:05;;;;;;;14.52;12.95;;;10.30;99.90;;;;;;5052856;28;20056;-79
2022/08/07 05:44:40;;;;;;;13.80;12.75;;;10.40;99.90;;;;;;5030643;28;20060;-79
2022/08/07 05:47:28;;;;;;;14.32;13.23;;;10.50;99.90;;;;;;5015638;28;20045;-79
2022/08/07 05:50:16;;;;;;;15.38;13.95;;;10.60;99.90;;;;;;5021281;28;20107;-80
2022/08/07 05:52:44;;;;;;;15.00;13.80;;;10.80;99.90;;;;;;5015432;28;20075;-81
2022/08/07 05:55:12;;;;;;;16.52;14.98;;;10.80;99.90;;;;;;5016576;22;20048;-74
2022/08/07 05:57:46;;;;;;;16.70;15.27;;;11.00;99.90;;;;;;5004615;28;20221;-74
2022/08/07 06:00:15;;;;;;;16.85;15.63;;;11.20;99.90;;;;;;4997408;28;21720;-74
2022/08/07 06:02:54;;;;;;;16.85;15.65;;;11.40;99.90;;;;;;5002348;28;20110;-74
2022/08/07 06:05:27;;;;;;;16.45;15.13;;;11.60;99.90;;;;;;4979277;28;20211;-74
2022/08/07 06:08:00;;;;;;;15.30;14.20;;;11.80;99.90;;;;;;4996569;28;20209;-74
2022/08/07 06:10:43;;;;;;;16.00;14.90;;;11.80;99.90;;;;;;4998458;28;20583;-73
2022/08/07 06:13:11;;;;;;;15.98;14.77;;;12.00;99.90;;;;;;4997826;28;20079;-74
2022/08/07 06:15:41;;;;;;;16.55;15.55;;;12.20;99.90;;;;;;4997074;28;20759;-74
2022/08/07 06:18:15;;;;;;;18.55;17.23;;;12.40;99.90;;;;;;4991688;28;20882;-74
2022/08/07 06:20:45;;;;;;;17.27;16.10;;;12.70;99.90;;;;;;4996640;28;20143;-74
2022/08/07 06:23:35;;;;;;;18.20;17.10;;;13.00;99.90;;;;;;4992646;28;20099;-74
2022/08/07 06:26:24;;;;;;;20.77;19.15;;;13.60;99.90;;;;;;4993013;28;20056;-72
2022/08/07 06:28:56;;;;;;;19.52;18.33;;;14.20;99.90;;;;;;4996351;28;20203;-74
2022/08/07 06:31:26;;;;;;;19.40;18.02;;;14.90;99.90;;;;;;4996037;28;20047;-74
2022/08/07 06:34:13;;;;;;;19.30;18.00;;;15.60;99.90;;;;;;4998454;28;20048;-74
2022/08/07 06:36:40;;;;;;;18.90;17.80;;;16.40;99.90;;;;;;4993784;28;20084;-74
2022/08/07 06:39:09;;;;;;;19.88;18.75;;;16.80;99.90;;;;;;4977768;28;20049;-74
2022/08/07 06:42:04;;;;;;;19.27;18.33;;;17.50;99.90;;;;;;4991624;28;20527;-73
2022/08/07 06:44:56;;;;;;;19.30;18.15;;;17.90;99.90;;;;;;4992692;28;20057;-74
2022/08/07 06:47:23;;;;;;;20.15;19.00;;;18.40;99.90;;;;;;4989800;28;20071;-73
2022/08/07 06:49:55;;;;;;;19.95;18.83;;;18.30;99.90;;;;;;4998667;28;20562;-73
2022/08/07 06:52:36;;;;;;;20.38;19.38;;;18.40;99.90;;;;;;4993134;28;21176;-74
2022/08/07 06:55:15;;;;;;;20.50;19.17;;;18.80;99.90;;;;;;4995043;28;20072;-74
2022/08/07 06:58:05;;;;;;;;;;;19.00;99.90;;;;;;4992949;28;20041;-73
2022/08/07 07:00:45;;;;;;;20.38;19.38;;;19.30;99.90;;;;;;4999639;28;19921;-73
2022/08/07 07:03:12;;;;;;;19.25;18.35;;;19.40;99.90;;;;;;4991356;28;20490;-74
2022/08/07 07:05:43;;;;;;;19.60;18.65;;;19.60;99.90;;;;;;4992442;28;20126;-74
2022/08/07 07:08:33;;;;;;;19.65;18.65;;;19.90;99.90;;;;;;4991593;28;20506;-74
2022/08/07 07:11:03;;;;;;;20.73;19.45;;;20.10;99.90;;;;;;4995921;28;20055;-74
2022/08/07 07:13:53;;;;;;;20.67;19.67;;;19.90;99.90;;;;;;4994731;28;20049;-73
2022/08/07 07:16:32;;;;;;;19.92;18.83;;;19.80;99.90;;;;;;5015367;28;20094;-73
2022/08/07 07:19:14;;;;;;;20.70;19.60;;;19.90;99.90;;;;;;5000180;28;20186;-72
2022/08/07 07:22:02;;;;;;;20.02;19.02;;;19.80;99.90;;;;;;5010264;28;20061;-72
2022/08/07 07:24:50;;;;;;;19.67;18.77;;;19.80;99.90;;;;;;5019195;28;20044;-74
2022/08/07 07:27:33;;;;;;;20.08;19.00;;;20.20;99.90;;;;;;5000936;28;20056;-74
2022/08/07 07:30:26;;;;;;;19.83;18.83;;;19.90;99.90;;;;;;5002083;28;20136;-73
2022/08/07 07:33:07;;;;;;;19.73;18.73;;;19.90;99.90;;;;;;5001801;28;20060;-73
2022/08/07 07:35:40;;;;;;;19.52;18.48;;;20.00;99.90;;;;;;5019421;28;20769;-73
2022/08/07 07:38:29;;;;;;;19.92;18.77;;;19.50;99.90;;;;;;4996287;28;20041;-73
2022/08/07 07:41:01;;;;;;;19.25;18.25;;;19.80;99.90;;;;;;5009838;28;20043;-73
2022/08/07 07:43:31;;;;;;;19.90;18.90;;;20.50;99.90;;;;;;5016455;28;20053;-73
2022/08/07 07:46:21;;;;;;;20.27;19.38;;;20.30;99.90;;;;;;5000226;28;20096;-73
2022/08/07 07:49:10;;;;;;;20.83;19.83;;;19.70;99.90;;;;;;5020624;28;20436;-73
2022/08/07 07:51:57;;;;;;;20.50;19.50;;;20.30;99.90;;;;;;5017726;28;20045;-73
2022/08/07 07:54:26;;;;;;;19.63;18.73;;;20.10;99.90;;;;;;5017540;28;20611;-73
2022/08/07 07:56:56;;;;;;;20.55;19.35;;;20.10;99.90;;;;;;4999243;28;20053;-73
2022/08/07 07:59:25;;;;;;;21.08;20.05;;;20.10;99.90;;;;;;4999065;28;20041;-73
2022/08/07 08:02:14;;;;;;;21.08;20.00;;;19.80;99.90;;;;;;4990161;28;20120;-73
2022/08/07 08:05:05;;;;;;;22.42;21.20;;;20.20;99.90;;;;;;5001908;28;20103;-72
2022/08/07 08:07:42;;;;;;;21.25;20.25;;;20.20;99.90;;;;;;4980740;28;20481;-73
2022/08/07 08:10:27;;;;;;;21.58;20.40;;;20.50;99.90;;;;;;4984532;28;20045;-73
2022/08/07 08:13:06;;;;;;;22.55;21.25;;;20.00;99.90;;;;;;5015088;28;20058;-72
2022/08/07 08:15:38;;;;;;;21.73;20.63;;;19.70;99.90;;;;;;4997101;28;20080;-73
2022/08/07 08:18:27;;;;;;;22.73;21.40;;;20.30;99.90;;;;;;5015806;28;20045;-73
2022/08/07 08:20:59;;;;;;;22.40;21.20;;;20.50;99.90;;;;;;5003129;28;20041;-72
2022/08/07 08:29:04;;;;;;;21.52;20.40;;;20.70;99.90;;;;;;5016166;28;20119;-73
2022/08/07 08:31:37;;;;;;;21.75;20.52;;;21.30;99.90;;;;;;5015768;28;20132;-75
2022/08/07 08:34:34;;;;;;;21.75;20.65;;;21.60;99.90;;;;;;4997612;28;20264;-75
2022/08/07 08:37:05;;;;;;;21.33;20.13;;;21.80;99.90;;;;;;4989799;28;20161;-73
2022/08/07 08:39:54;;;;;;;21.50;20.40;;;21.60;99.90;;;;;;5002248;28;20693;-74
2022/08/07 08:42:27;;;;;;;22.35;21.25;;;21.50;99.90;;;;;;5014882;28;20642;-74
2022/08/07 08:45:10;;;;;;;22.35;21.20;;;21.60;99.90;;;;;;5004632;28;20056;-74
2022/08/07 08:47:57;;;;;;;23.38;22.17;;;21.50;99.90;;;;;;5011556;28;20536;-74
2022/08/07 08:50:31;;;;;;;;;;;21.90;99.90;;;;;;4998202;28;20045;-74
2022/08/07 08:53:05;;;;;;;23.85;22.65;;;21.90;99.90;;;;;;5000630;28;20010;-74
2022/08/07 08:55:58;;;;;;;22.77;21.67;;;21.10;99.90;;;;;;5000071;28;20067;-72
2022/08/07 08:58:25;;;;;;;23.35;22.25;;;21.20;99.90;;;;;;4992723;28;20458;-74
2022/08/07 09:01:01;;;;;;;23.92;22.67;;;21.50;99.90;;;;;;4998382;28;20363;-76
2022/08/07 09:03:51;;;;;;;23.48;22.27;;;22.10;99.90;;;;;;4998852;28;20076;-75
2022/08/07 09:06:43;;;;;;;23.83;22.52;;;21.60;99.90;;;;;;4996601;28;20565;-74
2022/08/07 09:09:16;;;;;;;24.52;23.13;;;21.80;99.90;;;;;;5011988;28;20270;-73
2022/08/07 09:12:01;;;;;;;24.20;22.90;;;21.50;99.90;;;;;;4996542;28;20117;-74
2022/08/07 09:15:10;;;;;;;24.73;23.50;;;22.20;99.90;;;;;;4996275;28;20119;-74
2022/08/07 09:18:18;;;;;;;24.48;23.17;;;22.10;99.90;;;;;;4997512;28;20091;-72
2022/08/07 09:21:08;;;;;;;23.73;22.52;;;21.80;99.90;;;;;;5002649;28;20045;-73
2022/08/07 09:24:00;;;;;;;23.08;21.85;;;22.00;99.90;;;;;;5021060;28;20076;-74
2022/08/07 09:27:18;;;;;;;23.10;21.77;;;21.70;99.90;;;;;;4973283;28;20069;-74
2022/08/07 09:29:48;;;;;;;22.85;21.75;;;21.50;99.90;;;;;;4983781;28;20157;-74
2022/08/07 09:32:59;;;;;;;21.13;20.13;;;21.30;99.90;;;;;;4996948;28;20041;-73
2022/08/07 09:35:53;;;;;;;24.80;23.27;;;21.40;99.90;;;;;;4996473;28;20051;-74
2022/08/07 09:38:57;;;;;;;22.00;20.90;;;21.10;99.90;;;;;;4992896;28;20563;-73
2022/08/07 09:41:47;;;;;;;23.45;22.15;;;21.00;99.90;;;;;;5017380;28;20059;-73
2022/08/07 09:44:47;;;;;;;26.27;24.63;;;21.00;99.90;;;;;;5000528;28;20056;-74
2022/08/07 09:48:09;;;;;;;26.05;24.85;;;21.80;99.90;;;;;;4997163;28;20052;-73
2022/08/07 09:50:59;;;;;;;26.30;25.02;;;22.90;99.90;;;;;;5007651;28;20041;-73
2022/08/07 09:53:30;;;;;;;26.70;25.40;;;22.60;99.90;;;;;;4985363;28;20037;-74
2022/08/07 09:56:33;;;;;;;26.45;25.05;;;22.40;99.90;;;;;;4995624;28;20069;-76
2022/08/07 09:59:16;;;;;;;24.33;23.23;;;22.70;99.90;;;;;;4994360;28;21506;-73
2022/08/07 10:02:03;;;;;;;22.85;21.75;;;23.10;99.90;;;;;;4999985;28;20350;-75
2022/08/07 10:04:50;;;;;;;23.83;22.63;;;23.00;99.40;;;;;;4993283;28;20045;-75
2022/08/07 10:07:47;;;;;;;24.67;23.27;;;22.90;99.90;;;;;;4989735;28;20202;-75
2022/08/07 10:10:39;;;;;;;22.83;21.65;;;22.30;99.40;;;;;;4994159;28;20052;-73
2022/08/07 10:13:43;;;;;;;23.33;22.17;;;22.00;99.90;;;;;;5012078;28;20037;-73
2022/08/07 10:16:50;;;;;;;23.98;22.77;;;22.10;99.90;;;;;;4994146;28;20433;-75
2022/08/07 10:19:43;;;;;;;22.35;21.15;;;22.00;99.90;;;;;;4979594;28;20048;-73
2022/08/07 10:22:16;;;;;;;;;;;22.10;99.90;;;;;;4998219;28;20132;-74
2022/08/07 10:25:27;;;;;;;23.23;22.02;;;22.10;99.90;;;;;;5000791;28;19920;-74
2022/08/07 10:28:49;;;;;;;24.52;23.23;;;21.90;99.90;;;;;;4996431;28;20053;-74
2022/08/07 10:31:32;;;;;;;23.10;21.95;;;21.90;99.90;;;;;;4994072;28;20041;-74
2022/08/07 10:34:36;;;;;;;21.83;20.83;;;22.20;99.90;;;;;;5006398;28;20227;-74
2022/08/07 10:37:24;;;;;;;24.27;22.98;;;22.40;99.90;;;;;;4973177;28;20042;-73
2022/08/07 10:40:24;;;;;;;26.25;24.83;;;22.10;99.90;;;;;;5000741;28;20242;-75
2022/08/07 10:43:20;;;;;;;27.30;25.98;;;22.00;99.90;;;;;;5017844;28;20494;-73
2022/08/07 10:46:08;;;;;;;27.05;25.50;;;22.30;99.30;;;;;;4983161;28;20044;-73
2022/08/07 10:48:54;;;;;;;25.10;23.90;;;22.50;99.70;;;;;;4985680;28;20494;-75
2022/08/07 10:51:31;;;;;;;27.80;26.30;;;22.60;97.50;;;;;;4994179;28;20044;-75
2022/08/07 10:54:40;;;;;;;;;;;22.90;99.00;;;;;;5012406;28;20161;-75
2022/08/07 10:57:44;;;;;;;27.77;26.38;;;23.70;98.50;;;;;;5008902;28;19920;-74
2022/08/07 11:00:28;;;;;;;29.52;28.02;;;22.40;99.30;;;;;;4995449;28;20055;-75
2022/08/07 11:03:22;;;;;;;25.23;23.92;;;22.10;99.50;;;;;;5012078;28;20526;-74
2022/08/07 11:06:24;;;;;;;25.50;24.00;;;22.70;98.40;;;;;;4994409;28;20545;-75
2022/08/07 11:09:09;;;;;;;29.27;27.67;;;23.30;99.70;;;;;;5018789;28;20584;-73
2022/08/07 11:12:03;;;;;;;27.33;26.00;;;23.60;99.40;;;;;;4998488;28;20123;-74
2022/08/07 11:14:46;;;;;;;25.83;24.30;;;23.90;98.20;;;;;;5009819;28;20313;-74
2022/08/07 11:17:48;;;;;;;27.10;25.55;;;24.20;99.00;;;;;;4994662;28;20512;-75
2022/08/07 11:20:23;;;;;;;25.00;23.60;;;24.50;98.70;;;;;;4996926;28;20049;-75
2022/08/07 11:23:29;;;;;;;25.17;23.80;;;24.50;98.40;;;;;;4997844;28;20067;-74
2022/08/07 11:26:23;;;;;;;27.48;26.13;;;24.40;98.30;;;;;;4950235;28;20125;-74
2022/08/07 11:29:25;;;;;;;29.08;27.58;;;23.50;97.20;;;;;;4945849;28;20663;-75
2022/08/07 11:32:21;;;;;;;29.65;28.05;;;23.50;97.20;;;;;;4991699;28;20142;-75
2022/08/07 11:35:00;;;;;;;28.67;27.25;;;23.90;97.80;;;;;;4997100;28;20405;-75
2022/08/07 11:37:55;;;;;;;29.10;27.35;;;23.90;96.50;;;;;;4991085;28;20163;-74
2022/08/07 11:41:02;;;;;;;29.02;27.58;;;24.00;97.90;;;;;;4996422;28;20068;-75
2022/08/07 11:43:41;;;;;;;26.95;25.65;;;24.60;98.00;;;;;;5011533;28;20583;-75
2022/08/07 11:46:38;;;;;;;27.00;25.70;;;24.90;97.90;;;;;;4995209;28;20094;-75
2022/08/07 11:49:28;;;;;;;27.17;25.67;;;25.40;95.40;;;;;;5014680;28;21512;-75
2022/08/07 11:52:23;;;;;;;27.17;25.35;;;25.20;96.90;;;;;;4996349;28;20041;-75
2022/08/07 11:55:17;;;;;;;26.02;24.60;;;25.30;97.70;;;;;;4986237;28;20494;-76
2022/08/07 11:58:25;;;;;;;27.70;26.33;;;24.70;96.50;;;;;;4992696;28;20560;-75
2022/08/07 12:01:19;;;;;;;29.58;27.92;;;24.80;96.80;;;;;;4982531;28;20353;-75
2022/08/07 12:04:06;;;;;;;29.38;27.80;;;23.80;98.60;;;;;;4996166;28;20681;-75
2022/08/07 12:06:49;;;;;;;28.05;26.50;;;23.50;97.20;;;;;;4978953;28;20048;-75
2022/08/07 12:09:58;;;;;;;28.05;26.55;;;24.20;97.50;;;;;;5001136;28;20037;-72
2022/08/07 12:12:33;;;;;;;29.33;27.73;;;24.50;95.60;;;;;;4988595;28;20738;-74
2022/08/07 12:15:23;;;;;;;28.02;26.52;;;24.70;96.60;;;;;;5003152;28;20045;-77
2022/08/07 12:18:36;;;;;;;27.40;26.05;;;25.20;95.50;;;;;;5002757;28;20041;-76
2022/08/07 12:21:27;;;;;;;30.08;28.48;;;24.70;95.30;;;;;;5000599;28;20080;-72
2022/08/07 12:24:38;;;;;;;29.83;28.23;;;24.70;97.40;;;;;;5001902;28;20224;-75
2022/08/07 12:27:14;;;;;;;31.05;29.42;;;25.00;96.80;;;;;;4994131;28;20051;-76
2022/08/07 12:29:50;;;;;;;29.83;28.08;;;25.10;97.50;;;;;;5001737;28;20056;-74
2022/08/07 12:32:38;;;;;;;29.45;28.02;;;25.30;96.00;;;;;;5001655;28;20751;-74
2022/08/07 12:35:10;;;;;;;29.20;27.77;;;25.30;95.70;;;;;;5000493;28;20049;-74
2022/08/07 12:37:40;;;;;;;29.25;27.85;;;25.40;98.00;;;;;;4997276;28;20116;-77
2022/08/07 12:40:33;;;;;;;26.83;25.45;;;25.40;96.50;;;;;;5004300;28;20033;-77
2022/08/07 12:43:25;;;;;;;28.30;26.90;;;25.60;95.90;;;;;;5009194;28;21058;-75
2022/08/07 12:46:50;;;;;;;28.73;27.33;;;25.60;96.80;;;;;;5007585;28;20699;-76
2022/08/07 12:49:34;;;;;;;27.52;26.00;;;25.50;95.50;;;;;;5008715;28;20049;-76
2022/08/07 12:52:36;;;;;;;28.10;26.70;;;25.40;95.80;;;;;;5011338;28;20528;-75
2022/08/07 12:55:20;;;;;;;29.25;27.65;;;24.60;94.50;;;;;;5009993;28;20045;-75
2022/08/07 12:57:52;;;;;;;30.20;28.70;;;23.70;97.50;;;;;;4998836;28;20449;-76
2022/08/07 13:00:53;;;;;;;25.50;24.02;;;24.00;97.10;;;;;;5008641;28;20053;-77
2022/08/07 13:03:41;;;;;;;29.50;28.00;;;24.40;96.50;;;;;;4969140;28;20037;-78
2022/08/07 13:06:29;;;;;;;30.00;28.60;;;24.50;96.60;;;;;;4984396;28;20128;-74
2022/08/07 13:09:26;;;;;;;29.48;27.88;;;25.00;95.90;;;;;;5010854;28;20041;-75
2022/08/07 13:12:21;;;;;;;;;;;25.40;95.90;;;;;;4972276;28;20088;-74
2022/08/07 13:15:16;;;;;;;30.95;29.08;;;25.00;94.10;;;;;;5010432;28;20699;-75
2022/08/07 13:18:14;;;;;;;30.73;29.02;;;25.30;95.50;;;;;;4975502;28;20044;-75
2022/08/07 13:21:08;;;;;;;29.98;28.48;;;25.60;94.60;;;;;;4991123;28;20066;-74
2022/08/07 13:23:43;;;;;;;29.95;28.48;;;25.80;94.20;;;;;;4983286;28;20118;-76
2022/08/07 13:26:40;;;;;;;30.70;29.30;;;25.90;93.80;;;;;;4993302;28;20049;-76
2022/08/07 13:29:28;;;;;;;30.77;29.27;;;26.10;94.30;;;;;;4981854;28;20049;-75
2022/08/07 13:32:17;;;;;;;31.52;29.92;;;26.20;92.80;;;;;;5011025;28;20630;-76
2022/08/07 13:35:04;;;;;;;28.55;27.05;;;26.20;93.00;;;;;;4999443;28;20048;-77
2022/08/07 13:37:46;;;;;;;30.27;28.85;;;26.30;94.00;;;;;;4977940;28;20041;-76
2022/08/07 13:40:33;;;;;;;29.50;28.00;;;26.20;95.00;;;;;;5014608;28;20140;-75
2022/08/07 13:43:14;;;;;;;30.63;29.02;;;26.30;93.70;;;;;;5017349;28;20064;-77
2022/08/07 13:45:51;;;;;;;29.92;28.40;;;25.90;92.30;;;;;;5000300;28;20053;-77
2022/08/07 13:48:39;;;;;;;28.95;27.50;;;25.50;94.70;;;;;;4992048;28;20049;-77
2022/08/07 13:51:07;;;;;;;31.23;29.58;;;25.60;93.60;;;;;;5000005;28;20077;-75
2022/08/07 13:54:08;;;;;;;29.83;28.42;;;25.70;92.80;;;;;;5014663;28;20049;-76
2022/08/07 13:56:44;;;;;;;30.27;28.88;;;25.50;93.60;;;;;;4982633;28;20300;-75
2022/08/07 13:59:23;;;;;;;30.50;28.85;;;25.40;94.30;;;;;;5012888;28;21036;-74